Weather at Ben Gurion International Airport

Public forecast

Using degrees Celsius for public forecast. Weather courtesy of forecast.io.

Current aviation weather report (METAR) for Ben Gurion International Airport

2024/04/24 12:50 (retrieved 20 minutes ago)

LLBG 241250Z 11004KT 060V170 CAVOK 40/M02 Q1007 NOSIG

Aviation forecast (TAF) for Ben Gurion International Airport

2024/04/24 12:16 (retrieved 54 minutes ago)

TAF LLBG 241110Z 2412/2512 13010KT CAVOK FM241300 34008KT CAVOK BECMG 2416/2418 VRB04KT BECMG 2504/2506 13010KT PROB40 2511/2512 29008KT TX40/2412Z TN24/2500Z